Time;durP1;ratioP1;P1;durP2;ratioP2;P2;SDS_P1;SDS_P2;PMS_P1;PMS_P2;Temp;Humidity;BMP_temperature;BMP_pressure;BME280_temperature;BME280_humidity;BME280_pressure;Samples;Min_cycle;Max_cycle;Signal;HPM_P1;HPM_P2
2022/06/10 00:00:37;;;;;;;14.00;6.75;;;10.30;94.00;;;;;;5065285;28;20031;-84
2022/06/10 00:03:04;;;;;;;16.58;6.60;;;10.20;94.20;;;;;;5072322;28;20556;-84
2022/06/10 00:05:31;;;;;;;13.45;7.25;;;10.30;94.60;;;;;;5059646;28;20036;-84
2022/06/10 00:07:57;;;;;;;17.63;7.90;;;10.40;94.90;;;;;;5098598;28;20059;-84
2022/06/10 00:10:25;;;;;;;20.33;7.82;;;10.30;94.90;;;;;;5086253;28;20039;-83
2022/06/10 00:12:51;;;;;;;16.30;8.07;;;10.30;94.70;;;;;;5088245;28;20175;-84
2022/06/10 00:15:17;;;;;;;14.98;8.07;;;10.20;94.80;;;;;;5086453;28;20111;-84
2022/06/10 00:17:43;;;;;;;15.23;7.88;;;10.30;95.00;;;;;;5090083;28;20584;-84
2022/06/10 00:20:11;;;;;;;14.52;8.05;;;10.30;95.30;;;;;;5080554;28;20032;-84
2022/06/10 00:22:36;;;;;;;15.07;7.63;;;10.20;95.10;;;;;;5090314;28;20122;-84
2022/06/10 00:25:03;;;;;;;25.92;8.85;;;10.10;95.30;;;;;;5089341;28;20158;-84
2022/06/10 00:27:28;;;;;;;21.63;8.82;;;10.10;95.30;;;;;;5084150;28;20032;-84
2022/06/10 00:29:54;;;;;;;19.13;9.32;;;10.20;95.60;;;;;;5089345;28;20100;-84
2022/06/10 00:32:19;;;;;;;19.67;9.32;;;10.20;95.70;;;;;;5084642;28;20432;-84
2022/06/10 00:34:45;;;;;;;16.63;8.95;;;10.10;95.70;;;;;;5088826;28;20051;-84
2022/06/10 00:37:11;;;;;;;19.83;9.02;;;10.10;95.60;;;;;;5089248;28;20032;-84
2022/06/10 00:39:37;;;;;;;19.05;10.13;;;10.00;95.70;;;;;;5088278;28;20039;-84
2022/06/10 00:42:05;;;;;;;17.17;11.13;;;10.20;96.10;;;;;;5086596;28;20576;-84
2022/06/10 00:44:36;;;;;;;25.58;11.10;;;10.10;96.00;;;;;;5088104;28;20028;-84
2022/06/10 00:47:11;;;;;;;18.38;10.40;;;10.10;96.10;;;;;;5085265;28;20039;-84
2022/06/10 00:49:38;;;;;;;18.30;10.68;;;10.10;96.10;;;;;;5089592;28;20021;-84
2022/06/10 00:52:04;;;;;;;18.33;11.75;;;10.00;96.10;;;;;;5082557;28;21282;-84
2022/06/10 00:54:39;;;;;;;28.20;11.82;;;10.00;96.30;;;;;;5082286;28;20098;-84
2022/06/10 00:57:20;;;;;;;22.50;11.60;;;10.10;96.40;;;;;;5087966;28;20024;-84
2022/06/10 00:59:51;;;;;;;20.33;11.52;;;10.00;96.40;;;;;;5085142;28;20522;-84
2022/06/10 01:02:22;;;;;;;30.65;12.73;;;9.90;96.20;;;;;;5089736;28;20032;-84
2022/06/10 01:04:48;;;;;;;29.55;14.20;;;9.90;96.50;;;;;;5088143;28;20131;-84
2022/06/10 01:07:17;;;;;;;30.30;14.27;;;10.00;96.60;;;;;;5088244;28;20028;-84
2022/06/10 01:09:43;;;;;;;37.33;14.95;;;9.90;96.50;;;;;;5079166;28;20425;-84
2022/06/10 01:12:27;;;;;;;29.00;14.98;;;9.90;96.60;;;;;;5101812;28;20040;-84
2022/06/10 01:15:19;;;;;;;41.65;19.20;;;9.90;96.60;;;;;;5087666;28;20383;-84
2022/06/10 01:18:19;;;;;;;38.78;19.88;;;10.00;96.80;;;;;;5106707;28;20037;-84
2022/06/10 01:21:16;;;;;;;37.13;17.98;;;10.00;97.00;;;;;;5083450;28;20490;-84
2022/06/10 01:24:00;;;;;;;43.90;20.92;;;10.10;96.70;;;;;;5088505;28;20023;-84
2022/06/10 01:30:00;;;;;;;37.33;20.17;;;10.10;97.20;;;;;;5101900;28;20092;-83
2022/06/10 01:32:28;;;;;;;46.97;23.33;;;10.10;97.30;;;;;;5108936;28;20024;-84
2022/06/10 01:35:03;;;;;;;48.20;24.25;;;10.20;97.30;;;;;;5091435;28;20111;-84
2022/06/10 01:37:57;;;;;;;49.00;23.45;;;10.30;97.40;;;;;;5107715;28;20023;-84
2022/06/10 01:41:04;;;;;;;54.88;24.40;;;10.30;97.50;;;;;;5078805;28;20440;-84
2022/06/10 01:43:57;;;;;;;43.17;20.45;;;10.30;97.50;;;;;;5100583;28;20028;-84
2022/06/10 01:46:32;;;;;;;41.78;20.73;;;10.20;97.40;;;;;;5105023;28;20543;-84
2022/06/10 01:49:15;;;;;;;41.22;20.27;;;10.20;97.70;;;;;;5092798;28;20074;-84
2022/06/10 01:51:57;;;;;;;37.17;18.42;;;10.20;97.70;;;;;;5082759;28;20030;-84
2022/06/10 01:54:40;;;;;;;37.45;19.05;;;10.20;97.70;;;;;;5089673;28;20023;-84
2022/06/10 01:57:09;;;;;;;27.85;17.17;;;10.10;97.70;;;;;;5085437;28;20024;-84
2022/06/10 01:59:46;;;;;;;35.90;16.70;;;10.00;97.60;;;;;;5087880;28;20048;-84
2022/06/10 02:02:17;;;;;;;32.70;16.83;;;9.90;97.70;;;;;;5084354;28;20501;-84
2022/06/10 02:04:48;;;;;;;38.78;17.70;;;9.90;97.70;;;;;;5096934;27;20011;-84
2022/06/10 02:07:23;;;;;;;28.95;15.60;;;9.80;97.60;;;;;;5085735;28;20024;-84
2022/06/10 02:09:54;;;;;;;30.40;15.90;;;9.70;97.60;;;;;;5112108;28;20107;-84
2022/06/10 02:12:26;;;;;;;30.92;15.95;;;9.70;97.60;;;;;;5105627;28;20108;-84
2022/06/10 02:14:57;;;;;;;29.13;15.15;;;9.60;97.60;;;;;;5094989;27;20122;-84
2022/06/10 02:17:26;;;;;;;28.38;15.65;;;9.60;97.50;;;;;;5107806;28;20440;-84
2022/06/10 02:19:58;;;;;;;28.23;14.93;;;9.50;97.50;;;;;;5084124;28;20104;-84
2022/06/10 02:22:34;;;;;;;25.83;14.60;;;9.60;97.50;;;;;;5111278;27;20550;-85
2022/06/10 02:25:07;;;;;;;25.58;14.52;;;9.60;97.50;;;;;;5105767;28;20159;-85
2022/06/10 02:27:38;;;;;;;31.80;14.55;;;9.50;97.50;;;;;;5079396;28;20417;-84
2022/06/10 02:30:21;;;;;;;33.13;15.88;;;9.50;97.50;;;;;;5095702;28;20040;-84
2022/06/10 02:32:47;;;;;;;27.52;15.27;;;9.50;97.50;;;;;;5095463;28;20036;-84
2022/06/10 02:35:15;;;;;;;30.75;15.13;;;9.40;97.30;;;;;;5090884;27;20088;-84
2022/06/10 02:37:57;;;;;;;28.98;15.43;;;9.40;97.40;;;;;;5075977;28;20032;-84
2022/06/10 02:40:30;;;;;;;31.20;15.90;;;9.50;97.50;;;;;;5105996;27;20028;-84
2022/06/10 02:43:11;;;;;;;31.52;15.80;;;9.40;97.40;;;;;;5094744;28;20030;-84
2022/06/10 02:45:50;;;;;;;31.02;15.57;;;9.30;97.40;;;;;;5108461;28;20069;-84
2022/06/10 02:48:39;;;;;;;33.45;16.30;;;9.40;97.40;;;;;;5095551;27;20036;-84
2022/06/10 02:51:05;;;;;;;31.55;15.10;;;9.40;97.70;;;;;;5096803;28;20164;-84
2022/06/10 02:53:31;;;;;;;36.78;16.63;;;9.50;97.50;;;;;;5089492;28;20036;-84
2022/06/10 02:55:57;;;;;;;40.00;18.08;;;9.50;97.70;;;;;;5083323;28;20034;-84
2022/06/10 03:01:20;;;;;;;41.35;19.52;;;9.50;97.70;;;;;;5098866;27;20066;-84
2022/06/10 03:04:17;;;;;;;42.10;18.73;;;9.60;97.90;;;;;;5083956;28;20032;-84
2022/06/10 03:06:49;;;;;;;38.13;20.20;;;9.60;97.80;;;;;;5107086;27;20020;-84
2022/06/10 03:09:25;;;;;;;43.70;21.08;;;9.70;98.00;;;;;;5094314;28;20035;-84
2022/06/10 03:12:03;;;;;;;41.47;20.38;;;9.80;98.20;;;;;;5086079;28;20150;-84
2022/06/10 03:14:43;;;;;;;49.05;22.20;;;9.80;98.10;;;;;;5112532;27;20092;-84
2022/06/10 03:17:26;;;;;;;47.55;22.00;;;9.90;98.20;;;;;;5106169;27;20032;-84
2022/06/10 03:20:07;;;;;;;46.65;20.38;;;10.00;98.30;;;;;;5110317;27;20019;-84
2022/06/10 03:23:03;;;;;;;53.25;21.50;;;10.10;98.20;;;;;;5111544;27;20028;-84
2022/06/10 03:25:31;;;;;;;42.65;20.65;;;10.10;98.10;;;;;;5110060;28;20501;-83
2022/06/10 03:28:14;;;;;;;50.22;22.73;;;10.00;98.10;;;;;;5090070;28;20032;-83
2022/06/10 03:30:53;;;;;;;45.05;21.08;;;10.10;98.30;;;;;;5112554;27;20026;-83
2022/06/10 03:33:47;;;;;;;44.30;21.05;;;10.10;98.20;;;;;;5089792;28;20114;-84
2022/06/10 03:36:17;;;;;;;45.15;21.83;;;10.10;98.30;;;;;;5094435;28;20122;-84
2022/06/10 03:38:46;;;;;;;48.35;20.85;;;10.10;98.20;;;;;;5080013;27;20494;-84
2022/06/10 03:41:24;;;;;;;42.45;20.15;;;10.10;98.20;;;;;;5093678;28;20050;-84
2022/06/10 03:43:53;;;;;;;46.65;21.38;;;10.10;98.30;;;;;;5091330;28;20023;-84
2022/06/10 03:46:21;;;;;;;41.35;20.77;;;10.10;98.20;;;;;;5090638;27;20035;-84
2022/06/10 03:48:48;;;;;;;43.33;20.30;;;10.10;98.30;;;;;;5094263;28;20032;-84
2022/06/10 03:51:16;;;;;;;48.40;20.95;;;10.20;98.30;;;;;;5105164;27;20100;-84
2022/06/10 03:53:42;;;;;;;43.58;21.83;;;10.30;98.40;;;;;;5088895;28;20064;-83
2022/06/10 03:56:09;;;;;;;41.70;21.75;;;10.30;98.40;;;;;;5102895;28;20057;-83
2022/06/10 03:58:35;;;;;;;50.40;22.35;;;10.40;98.40;;;;;;5088471;28;20034;-83
2022/06/10 04:01:00;;;;;;;44.15;22.48;;;10.40;98.40;;;;;;5092733;28;20020;-83
2022/06/10 04:03:26;;;;;;;48.50;23.40;;;10.40;98.30;;;;;;5108291;27;20059;-83
2022/06/10 04:05:51;;;;;;;46.97;22.92;;;10.50;98.40;;;;;;5104829;27;20111;-83
2022/06/10 04:08:17;;;;;;;50.55;23.38;;;10.50;98.40;;;;;;5101892;28;20035;-83
2022/06/10 04:10:43;;;;;;;49.60;23.63;;;10.50;98.30;;;;;;5087188;28;20081;-84
2022/06/10 04:13:10;;;;;;;44.58;22.33;;;10.60;98.40;;;;;;5084047;27;20028;-83
2022/06/10 04:15:36;;;;;;;41.47;21.30;;;10.60;98.30;;;;;;5103365;27;20032;-83
2022/06/10 04:18:02;;;;;;;43.05;22.15;;;10.60;98.30;;;;;;5094348;28;20091;-83
2022/06/10 04:20:29;;;;;;;54.33;22.60;;;10.60;98.30;;;;;;5091418;28;20023;-83
2022/06/10 04:22:55;;;;;;;42.78;21.35;;;10.70;98.40;;;;;;5104824;27;20542;-84
2022/06/10 04:25:22;;;;;;;41.95;21.63;;;10.80;98.40;;;;;;5074262;28;20541;-84
2022/06/10 04:27:48;;;;;;;43.60;22.20;;;10.80;98.40;;;;;;5084274;28;20031;-83
2022/06/10 04:30:24;;;;;;;41.97;20.40;;;10.90;98.40;;;;;;5094497;27;20028;-83
2022/06/10 04:32:50;;;;;;;38.13;21.95;;;10.90;98.40;;;;;;5091774;28;20085;-83
2022/06/10 04:35:16;;;;;;;42.00;21.67;;;10.90;98.20;;;;;;5103588;28;20051;-83
2022/06/10 04:37:44;;;;;;;43.92;21.83;;;11.00;98.40;;;;;;5093216;27;20118;-84
2022/06/10 04:40:16;;;;;;;48.47;23.85;;;11.00;98.30;;;;;;5089571;28;20383;-83
2022/06/10 04:42:43;;;;;;;48.60;23.13;;;11.10;98.30;;;;;;5100954;28;20173;-84
2022/06/10 04:45:09;;;;;;;48.17;22.90;;;11.10;98.20;;;;;;5107888;27;20023;-84
2022/06/10 04:47:35;;;;;;;46.47;22.83;;;11.20;98.30;;;;;;5112067;28;20461;-86
2022/06/10 04:50:01;;;;;;;43.92;22.02;;;11.30;98.30;;;;;;5090122;28;20032;-84
2022/06/10 04:52:30;;;;;;;51.10;21.35;;;11.30;98.20;;;;;;5105369;27;20043;-85
2022/06/10 04:54:55;;;;;;;43.47;22.60;;;11.30;98.10;;;;;;5102845;27;20035;-84
2022/06/10 04:57:21;;;;;;;40.92;22.33;;;11.30;98.10;;;;;;5083531;28;20535;-84
2022/06/10 04:59:47;;;;;;;38.92;21.67;;;11.40;98.00;;;;;;5087202;28;20024;-84
2022/06/10 05:02:13;;;;;;;45.13;21.52;;;11.50;98.00;;;;;;5086856;28;20368;-84
2022/06/10 05:04:38;;;;;;;38.38;21.48;;;11.50;98.00;;;;;;5084814;28;20031;-84
2022/06/10 05:07:04;;;;;;;38.92;21.58;;;11.50;97.90;;;;;;5108049;28;20084;-85
2022/06/10 05:09:30;;;;;;;37.38;21.35;;;11.60;97.90;;;;;;5107110;28;20499;-85
2022/06/10 05:11:55;;;;;;;40.65;19.52;;;11.70;97.90;;;;;;5109636;28;20051;-84
2022/06/10 05:14:21;;;;;;;35.33;19.65;;;11.80;97.80;;;;;;5091050;28;20043;-84
2022/06/10 05:16:47;;;;;;;39.40;19.90;;;11.90;97.70;;;;;;5093312;28;21043;-85
2022/06/10 05:19:13;;;;;;;33.00;17.10;;;11.90;97.60;;;;;;5092361;28;20024;-85
2022/06/10 05:21:39;;;;;;;38.33;18.85;;;12.00;97.40;;;;;;5089174;28;20059;-84
2022/06/10 05:24:05;;;;;;;38.67;19.05;;;12.10;97.20;;;;;;5084195;28;20193;-85
2022/06/10 05:26:32;;;;;;;30.13;17.83;;;12.20;97.10;;;;;;5105299;28;20077;-86
2022/06/10 05:29:01;;;;;;;28.75;17.52;;;12.30;96.90;;;;;;5085362;28;20054;-86
2022/06/10 05:31:26;;;;;;;34.80;16.50;;;12.40;96.70;;;;;;5106562;28;20026;-87
2022/06/10 05:36:36;;;;;;;26.60;15.20;;;12.60;96.30;;;;;;5108921;28;20073;-86
2022/06/10 05:39:03;;;;;;;30.40;14.80;;;12.70;95.70;;;;;;5090844;28;20113;-86
2022/06/10 05:44:13;;;;;;;24.23;13.15;;;12.90;95.30;;;;;;5103543;28;20410;-86
2022/06/10 05:46:38;;;;;;;16.58;11.57;;;13.00;95.20;;;;;;5091737;28;20027;-86
2022/06/10 05:49:05;;;;;;;21.02;11.57;;;13.00;95.10;;;;;;5088253;28;20123;-86
2022/06/10 05:51:30;;;;;;;15.85;11.65;;;13.20;94.80;;;;;;5100729;28;20020;-86
2022/06/10 05:53:56;;;;;;;16.55;10.38;;;13.40;94.60;;;;;;5102823;28;20036;-86
2022/06/10 05:56:22;;;;;;;21.75;9.73;;;13.50;94.50;;;;;;5089653;28;20410;-86
2022/06/10 05:58:47;;;;;;;18.02;9.50;;;13.60;94.10;;;;;;5106949;28;20040;-86
2022/06/10 06:01:13;;;;;;;17.67;8.70;;;13.70;93.70;;;;;;5088347;28;20016;-87
2022/06/10 06:03:38;;;;;;;12.88;7.80;;;13.90;93.40;;;;;;5111534;28;20035;-87
2022/06/10 06:06:04;;;;;;;16.20;7.72;;;14.00;93.00;;;;;;5092161;28;20046;-87
2022/06/10 06:08:30;;;;;;;14.05;7.05;;;14.10;92.80;;;;;;5106755;28;20505;-87
2022/06/10 06:10:56;;;;;;;15.50;7.10;;;14.40;92.00;;;;;;5077816;28;20047;-87
2022/06/10 06:13:21;;;;;;;15.18;5.90;;;14.60;91.90;;;;;;5091545;28;20020;-87
2022/06/10 06:15:47;;;;;;;13.05;5.75;;;14.60;91.50;;;;;;5112271;28;20049;-81
2022/06/10 06:18:13;;;;;;;9.32;4.60;;;14.70;90.90;;;;;;5095181;28;20063;-82
2022/06/10 06:20:39;;;;;;;10.77;4.90;;;14.80;90.30;;;;;;5101078;28;20129;-82
2022/06/10 06:23:05;;;;;;;8.23;4.00;;;15.00;90.60;;;;;;5114552;28;20024;-82
2022/06/10 06:25:31;;;;;;;10.57;3.58;;;15.10;87.30;;;;;;5102619;28;20046;-82
2022/06/10 06:27:58;;;;;;;9.00;3.63;;;15.30;86.40;;;;;;5108629;28;20027;-82
2022/06/10 06:30:30;;;;;;;10.40;3.63;;;15.50;87.00;;;;;;5107457;28;20080;-81
2022/06/10 06:32:57;;;;;;;11.25;3.53;;;15.60;87.00;;;;;;5111611;28;20024;-82
2022/06/10 06:35:23;;;;;;;11.95;3.60;;;15.70;85.10;;;;;;5108253;28;20106;-82
2022/06/10 06:37:48;;;;;;;11.50;2.90;;;15.90;85.20;;;;;;5109941;28;20383;-82
2022/06/10 06:40:14;;;;;;;8.02;2.38;;;16.00;84.10;;;;;;5104692;28;20016;-82
2022/06/10 06:42:40;;;;;;;8.25;2.60;;;16.00;83.70;;;;;;5096871;28;20023;-82
2022/06/10 06:45:06;;;;;;;7.10;2.65;;;16.20;82.50;;;;;;5116372;28;20053;-81
2022/06/10 06:47:31;;;;;;;5.68;2.40;;;16.40;82.60;;;;;;5124372;27;20027;-82
2022/06/10 06:49:58;;;;;;;6.15;2.22;;;16.50;82.50;;;;;;5120590;28;20084;-82
2022/06/10 06:52:23;;;;;;;5.72;2.25;;;16.60;81.10;;;;;;5099946;28;20930;-81
2022/06/10 06:54:49;;;;;;;6.82;2.42;;;16.70;80.20;;;;;;5118004;27;20032;-81
2022/06/10 06:57:14;;;;;;;4.75;1.90;;;16.90;80.00;;;;;;5117641;28;20019;-81
2022/06/10 06:59:40;;;;;;;6.43;1.77;;;17.00;78.40;;;;;;5088961;28;20032;-82
2022/06/10 07:02:05;;;;;;;6.95;1.95;;;17.10;78.10;;;;;;5120311;28;20457;-82
2022/06/10 07:04:31;;;;;;;7.40;1.58;;;17.20;77.00;;;;;;5120672;27;20383;-82
2022/06/10 07:06:56;;;;;;;4.78;1.70;;;17.30;76.90;;;;;;5101010;28;20490;-82
2022/06/10 07:09:22;;;;;;;8.57;1.90;;;17.50;76.80;;;;;;5099677;28;20078;-82
2022/06/10 07:11:48;;;;;;;10.07;1.85;;;17.60;75.80;;;;;;5118739;27;20534;-82
2022/06/10 07:14:14;;;;;;;8.02;1.52;;;17.90;76.60;;;;;;5100030;28;20022;-82
2022/06/10 07:16:41;;;;;;;9.23;1.80;;;18.10;75.60;;;;;;5096173;28;20028;-82
2022/06/10 07:19:07;;;;;;;6.03;1.67;;;18.20;73.60;;;;;;5102295;28;20027;-82
2022/06/10 07:21:32;;;;;;;8.18;1.80;;;18.30;73.50;;;;;;5102522;28;20077;-82
2022/06/10 07:23:58;;;;;;;5.80;1.80;;;18.30;72.70;;;;;;5117094;28;20387;-82
2022/06/10 07:26:23;;;;;;;6.68;1.42;;;18.50;71.10;;;;;;5097567;28;20027;-82
2022/06/10 07:28:50;;;;;;;7.88;1.38;;;18.50;68.40;;;;;;5093942;28;20032;-83
2022/06/10 07:31:15;;;;;;;7.88;1.48;;;18.50;68.00;;;;;;5111098;27;20046;-84
2022/06/10 07:33:41;;;;;;;5.75;1.30;;;18.80;69.20;;;;;;5110851;28;20398;-84
2022/06/10 07:36:07;;;;;;;5.90;1.38;;;19.00;69.40;;;;;;5113207;28;20451;-84
2022/06/10 07:38:34;;;;;;;8.90;2.05;;;19.10;67.70;;;;;;5095377;28;20028;-84
2022/06/10 07:43:44;;;;;;;8.45;1.80;;;19.30;68.10;;;;;;5112410;28;20052;-84
2022/06/10 07:46:13;;;;;;;9.30;1.52;;;19.60;68.00;;;;;;5098608;28;20023;-83
2022/06/10 07:48:38;;;;;;;4.82;1.40;;;19.50;64.50;;;;;;5108315;28;20028;-83
2022/06/10 07:51:05;;;;;;;8.77;1.38;;;19.50;64.40;;;;;;5111920;28;20489;-83
2022/06/10 07:53:30;;;;;;;8.27;1.70;;;19.40;64.40;;;;;;5093559;28;20023;-83
2022/06/10 07:55:57;;;;;;;8.15;1.80;;;19.60;62.80;;;;;;5099606;27;20034;-83
2022/06/10 07:58:24;;;;;;;8.27;1.65;;;19.70;63.80;;;;;;5085332;28;20027;-84
2022/06/10 08:00:51;;;;;;;7.47;1.73;;;20.00;65.50;;;;;;5094900;28;20027;-84
2022/06/10 08:03:17;;;;;;;7.43;1.75;;;20.10;62.70;;;;;;5112513;27;20020;-84
2022/06/10 08:05:42;;;;;;;4.93;1.27;;;20.20;63.40;;;;;;5104839;27;20092;-83
2022/06/10 08:08:11;;;;;;;11.98;1.85;;;20.30;62.30;;;;;;5092569;28;20127;-84
2022/06/10 08:10:37;;;;;;;7.32;1.98;;;20.60;62.30;;;;;;5078372;28;20701;-84
2022/06/10 08:13:04;;;;;;;5.65;1.55;;;20.50;59.00;;;;;;5092248;28;20038;-84
2022/06/10 08:15:31;;;;;;;4.63;1.20;;;20.40;57.60;;;;;;5079401;28;20122;-84
2022/06/10 08:17:57;;;;;;;7.28;1.40;;;20.60;59.50;;;;;;5101191;27;20367;-83
2022/06/10 08:23:12;;;;;;;6.00;1.30;;;21.20;61.30;;;;;;5111780;28;20478;-84
2022/06/10 08:25:38;;;;;;;7.25;1.60;;;21.30;58.90;;;;;;5099933;28;20020;-85
2022/06/10 08:28:04;;;;;;;5.93;1.38;;;21.10;56.50;;;;;;5092384;28;20187;-84
2022/06/10 08:30:29;;;;;;;10.13;1.65;;;21.30;57.40;;;;;;5092611;28;20057;-83
2022/06/10 08:32:55;;;;;;;5.60;1.27;;;21.30;55.90;;;;;;5108570;27;20448;-84
2022/06/10 08:35:20;;;;;;;6.80;1.35;;;21.30;56.20;;;;;;5102980;28;20170;-83
2022/06/10 08:37:46;;;;;;;9.45;1.58;;;21.40;56.40;;;;;;5106521;27;20026;-84
2022/06/10 08:40:26;;;;;;;6.07;1.33;;;21.60;58.00;;;;;;5088789;28;20489;-84
2022/06/10 08:42:54;;;;;;;5.72;1.75;;;21.90;55.20;;;;;;5090789;28;20026;-84
2022/06/10 08:45:46;;;;;;;6.68;1.70;;;21.80;54.70;;;;;;5093371;28;20030;-84
2022/06/10 08:48:29;;;;;;;9.45;2.08;;;21.50;54.80;;;;;;5106272;28;20038;-83
2022/06/10 08:51:16;;;;;;;4.93;1.80;;;22.00;54.00;;;;;;5112205;28;20024;-84
2022/06/10 08:53:57;;;;;;;5.53;1.63;;;22.00;53.50;;;;;;5094956;28;20028;-84
2022/06/10 08:56:41;;;;;;;7.78;2.78;;;22.20;53.30;;;;;;5109102;28;20032;-84
2022/06/10 08:59:18;;;;;;;7.57;2.30;;;21.60;54.00;;;;;;5089476;28;20031;-84
2022/06/10 09:02:05;;;;;;;15.65;2.30;;;21.80;53.00;;;;;;5104681;28;20036;-84
2022/06/10 09:05:01;;;;;;;7.75;2.00;;;21.80;53.80;;;;;;5101333;28;20019;-83
2022/06/10 09:07:48;;;;;;;8.65;2.10;;;21.80;53.60;;;;;;5094285;28;20072;-84
2022/06/10 09:10:42;;;;;;;6.38;1.83;;;22.40;53.00;;;;;;5090755;28;20031;-84
2022/06/10 09:13:21;;;;;;;3.28;1.35;;;22.90;54.00;;;;;;5092780;28;20035;-84
2022/06/10 09:15:54;;;;;;;5.32;2.05;;;22.50;53.30;;;;;;5087684;28;20051;-84
2022/06/10 09:18:39;;;;;;;6.53;2.17;;;22.50;55.30;;;;;;5094743;28;20035;-83
2022/06/10 09:21:11;;;;;;;6.88;2.30;;;21.90;53.20;;;;;;5102498;28;20024;-84
2022/06/10 09:23:44;;;;;;;5.30;2.10;;;22.10;52.30;;;;;;5092694;28;20632;-83
2022/06/10 09:26:30;;;;;;;5.53;1.80;;;22.00;52.10;;;;;;5107928;27;20047;-83
2022/06/10 09:28:56;;;;;;;5.07;1.90;;;22.00;55.20;;;;;;5107760;28;20032;-84
2022/06/10 09:31:31;;;;;;;6.80;2.33;;;21.50;55.10;;;;;;5094887;28;20474;-83
2022/06/10 09:34:16;;;;;;;6.50;2.03;;;21.20;54.10;;;;;;5093724;28;20066;-84
2022/06/10 09:36:48;;;;;;;6.60;1.58;;;21.30;53.70;;;;;;5096749;28;20027;-84
2022/06/10 09:42:43;;;;;;;8.95;1.65;;;21.90;53.10;;;;;;5108694;28;20038;-84
2022/06/10 09:45:20;;;;;;;7.75;1.45;;;21.20;53.20;;;;;;5089493;28;20035;-83
2022/06/10 09:48:03;;;;;;;4.53;1.50;;;21.60;54.30;;;;;;5090550;28;20138;-83
2022/06/10 09:50:36;;;;;;;6.50;1.55;;;22.20;54.40;;;;;;5109825;28;20047;-84
2022/06/10 09:53:22;;;;;;;7.53;1.50;;;23.00;51.00;;;;;;5111716;28;20113;-84
2022/06/10 09:56:16;;;;;;;7.22;1.90;;;23.80;50.90;;;;;;5103160;28;20110;-84
2022/06/10 09:59:23;;;;;;;6.60;1.38;;;23.40;48.00;;;;;;5106217;28;20080;-84
2022/06/10 10:02:30;;;;;;;6.78;1.45;;;23.20;49.30;;;;;;5039165;28;20512;-84
2022/06/10 10:05:14;;;;;;;7.15;1.95;;;23.00;49.60;;;;;;5109936;28;20073;-84
2022/06/10 10:07:57;;;;;;;8.82;1.63;;;23.20;48.70;;;;;;5110046;28;20531;-84
2022/06/10 10:10:37;;;;;;;6.82;1.80;;;22.80;51.30;;;;;;5073678;28;20031;-83
2022/06/10 10:13:29;;;;;;;9.73;1.63;;;22.50;50.80;;;;;;5102516;28;20055;-84
2022/06/10 10:16:10;;;;;;;3.75;1.70;;;22.50;52.10;;;;;;5087504;28;20077;-84
2022/06/10 10:18:53;;;;;;;6.57;1.50;;;22.50;50.20;;;;;;5112843;28;20514;-84
2022/06/10 10:21:48;;;;;;;10.20;2.00;;;23.00;50.50;;;;;;5111563;28;20019;-84
2022/06/10 10:24:18;;;;;;;4.85;1.67;;;23.40;49.90;;;;;;5113335;28;20102;-84
2022/06/10 10:26:45;;;;;;;23.33;2.30;;;23.60;47.40;;;;;;5093261;28;20015;-84
2022/06/10 10:29:19;;;;;;;7.43;2.15;;;23.20;50.10;;;;;;5095219;28;20141;-84
2022/06/10 10:31:52;;;;;;;5.55;1.85;;;23.70;51.30;;;;;;5096800;28;20027;-84
2022/06/10 10:34:20;;;;;;;5.30;2.00;;;23.70;49.30;;;;;;5095286;28;20035;-84
2022/06/10 10:36:53;;;;;;;4.25;1.67;;;24.00;50.10;;;;;;5097143;28;20175;-85
2022/06/10 10:39:32;;;;;;;5.68;2.22;;;24.30;48.60;;;;;;5113240;28;20582;-84
2022/06/10 10:42:04;;;;;;;5.13;1.75;;;24.40;49.80;;;;;;5094314;28;20479;-84
2022/06/10 10:44:42;;;;;;;4.75;1.90;;;23.70;51.40;;;;;;5094789;27;20031;-84
2022/06/10 10:47:10;;;;;;;4.97;1.70;;;23.90;48.80;;;;;;5108439;27;20031;-84
2022/06/10 10:49:54;;;;;;;4.75;1.95;;;24.50;49.40;;;;;;5096169;28;20038;-84
2022/06/10 10:52:29;;;;;;;6.05;2.03;;;24.50;47.30;;;;;;5112101;27;20442;-83
2022/06/10 10:55:05;;;;;;;3.97;1.50;;;24.10;48.90;;;;;;5112377;28;20084;-84
2022/06/10 10:57:36;;;;;;;8.70;2.35;;;23.50;48.70;;;;;;5107450;28;20043;-84
2022/06/10 11:00:14;;;;;;;4.88;1.85;;;23.10;51.20;;;;;;5109305;28;20023;-83
2022/06/10 11:02:48;;;;;;;7.32;2.08;;;22.50;49.70;;;;;;5121547;27;20454;-83
2022/06/10 11:05:35;;;;;;;6.53;1.67;;;22.90;50.20;;;;;;5114875;28;20102;-84
2022/06/10 11:08:09;;;;;;;5.85;1.40;;;22.60;50.70;;;;;;5116818;28;20051;-84
2022/06/10 11:11:00;;;;;;;7.78;1.77;;;23.40;52.40;;;;;;5110956;27;20084;-84
2022/06/10 11:13:35;;;;;;;5.38;2.00;;;23.60;48.60;;;;;;5112829;28;20054;-84
2022/06/10 11:16:29;;;;;;;6.03;1.73;;;23.30;49.40;;;;;;5114312;28;20050;-84
2022/06/10 11:19:18;;;;;;;5.40;1.70;;;23.30;50.00;;;;;;5114400;27;20479;-83
2022/06/10 11:22:09;;;;;;;8.30;1.80;;;23.80;47.40;;;;;;5095283;28;20032;-83
2022/06/10 11:25:16;;;;;;;7.43;1.90;;;24.10;48.80;;;;;;5059588;28;20525;-84
2022/06/10 11:27:48;;;;;;;7.63;2.00;;;24.20;48.20;;;;;;5109020;27;20031;-84
2022/06/10 11:30:13;;;;;;;4.70;1.50;;;23.80;47.90;;;;;;5087146;28;20016;-84
2022/06/10 11:32:42;;;;;;;5.75;2.47;;;23.70;49.10;;;;;;5107219;28;20034;-83
2022/06/10 11:35:28;;;;;;;6.20;1.90;;;23.20;50.50;;;;;;5082967;27;20023;-83
2022/06/10 11:38:02;;;;;;;3.63;1.65;;;22.90;51.60;;;;;;5120772;27;20808;-84
2022/06/10 11:40:46;;;;;;;9.93;1.92;;;22.80;51.50;;;;;;5093076;28;20031;-83
2022/06/10 11:43:25;;;;;;;12.32;2.45;;;22.70;51.70;;;;;;5114949;27;20110;-83
2022/06/10 11:46:02;;;;;;;5.43;2.17;;;22.70;53.90;;;;;;5098260;28;20053;-83
2022/06/10 11:48:46;;;;;;;7.68;2.30;;;22.60;54.30;;;;;;5095281;28;20125;-83
2022/06/10 11:51:42;;;;;;;6.05;2.20;;;22.70;53.80;;;;;;5118152;28;20453;-83
2022/06/10 11:54:31;;;;;;;9.07;2.72;;;23.00;53.10;;;;;;5098162;28;20024;-83
2022/06/10 12:00:20;;;;;;;8.73;2.83;;;23.20;53.30;;;;;;5103246;27;20030;-83
2022/06/10 12:03:23;;;;;;;5.75;2.30;;;22.90;55.30;;;;;;5098133;28;20027;-83
2022/06/10 12:06:18;;;;;;;6.65;2.42;;;23.10;56.00;;;;;;5107892;27;20084;-84
2022/06/10 12:08:43;;;;;;;6.85;2.08;;;22.80;54.60;;;;;;5088404;28;20031;-83
2022/06/10 12:11:24;;;;;;;5.43;1.77;;;22.80;54.70;;;;;;5122589;27;20092;-84
2022/06/10 12:13:54;;;;;;;6.38;1.52;;;22.50;54.20;;;;;;5095451;28;20019;-83
2022/06/10 12:16:19;;;;;;;4.93;1.70;;;22.30;55.40;;;;;;5088713;28;20487;-84
2022/06/10 12:18:49;;;;;;;5.63;1.88;;;23.00;55.60;;;;;;5109549;27;20284;-84
2022/06/10 12:21:22;;;;;;;5.03;1.60;;;23.40;53.50;;;;;;5094715;28;20103;-84
2022/06/10 12:23:47;;;;;;;4.05;1.48;;;23.20;54.00;;;;;;5111833;28;20110;-84
2022/06/10 12:26:22;;;;;;;6.85;1.73;;;22.80;53.80;;;;;;5111487;27;20106;-84
2022/06/10 12:29:10;;;;;;;4.22;2.08;;;23.00;55.40;;;;;;5111257;28;20019;-84
2022/06/10 12:32:03;;;;;;;7.07;1.80;;;23.50;53.40;;;;;;5109127;28;20447;-84
2022/06/10 12:35:03;;;;;;;5.30;1.63;;;24.20;52.00;;;;;;5111145;27;20516;-84
2022/06/10 12:37:38;;;;;;;3.88;1.25;;;24.20;50.30;;;;;;5093744;28;20026;-84
2022/06/10 12:40:27;;;;;;;4.38;1.08;;;24.60;51.00;;;;;;5109712;28;20356;-84
2022/06/10 12:43:10;;;;;;;2.95;0.90;;;24.20;51.30;;;;;;5111805;28;20016;-84
2022/06/10 12:45:44;;;;;;;2.90;0.68;;;24.80;49.70;;;;;;5117431;27;20023;-84
2022/06/10 12:48:50;;;;;;;3.58;0.68;;;24.70;50.00;;;;;;5091140;28;20038;-84
2022/06/10 12:51:36;;;;;;;3.33;0.50;;;24.50;49.40;;;;;;5095641;27;20367;-84
2022/06/10 12:54:32;;;;;;;3.00;0.90;;;24.20;50.50;;;;;;5110313;27;20043;-84
2022/06/10 12:57:22;;;;;;;3.67;0.82;;;23.70;51.50;;;;;;5109897;28;20032;-84
2022/06/10 12:59:48;;;;;;;3.92;0.82;;;23.90;53.50;;;;;;5111926;28;20032;-84
2022/06/10 13:02:34;;;;;;;3.70;1.10;;;23.80;51.70;;;;;;5111712;27;20523;-84
2022/06/10 13:05:14;;;;;;;2.65;0.57;;;24.20;51.30;;;;;;5112810;28;20023;-84
2022/06/10 13:07:40;;;;;;;1.90;0.85;;;24.40;51.10;;;;;;5112723;28;20028;-84
2022/06/10 13:10:33;;;;;;;3.20;0.77;;;24.40;50.30;;;;;;5089675;28;20123;-84
2022/06/10 13:13:13;;;;;;;2.40;0.75;;;24.30;51.20;;;;;;5111184;28;20470;-83
2022/06/10 13:15:40;;;;;;;2.92;0.82;;;23.60;52.20;;;;;;5108137;28;20023;-83
2022/06/10 13:18:25;;;;;;;3.10;1.00;;;23.30;54.00;;;;;;5112325;28;20035;-84
2022/06/10 13:20:51;;;;;;;2.42;0.88;;;22.90;55.50;;;;;;5093443;28;20026;-84
2022/06/10 13:23:20;;;;;;;4.53;1.30;;;22.80;57.30;;;;;;5080081;28;20077;-84
2022/06/10 13:26:12;;;;;;;4.40;1.23;;;22.90;56.60;;;;;;5101004;27;20055;-84
2022/06/10 13:28:43;;;;;;;2.47;0.90;;;23.20;57.10;;;;;;5082101;28;20043;-84
2022/06/10 13:31:15;;;;;;;2.45;0.68;;;23.30;57.30;;;;;;5109215;28;20588;-84
2022/06/10 13:33:55;;;;;;;1.45;0.60;;;22.70;58.30;;;;;;5086783;28;20912;-84